Hovedside
METAR-TAF:

METAR-TAF

Lufthavner :

Tromsø, Norge

Tromsø lufthavn. Langnes

breddegrad: 69-41N, lengdegrad: 018-55E, høyde over havet: 1 m

Gjeldene værobservasjon

Denne rapporten ble laget for 12 minutter siden, klokken 08:20 UTC
Vind 18 kt fra Sør-sørvest
Temperatur -7°C
Luftfuktighet 67%
Trykk 1010 hPa
Sikt 10 km eller mer
Få skyer i en høyde av 3900 ft
Brutte skyer i en høyde av 5700 ft

METAR: ENTC 220820Z 20018KT 9999 FEW039 BKN057 M07/M12 Q1010 TEMPO 4000 -SHSN VV010

Tid: 09:32 (08:32 UTC)

Varsel

Varsel gyldig fra 22. klokken 06 UTC til 23. klokken 06 UTC
Vind 9 kt fra Sør-sørvest
Sikt 10 km eller mer
Spredte skyer i en høyde av 5000 ft
Midlertidig
fra 22. klokken 06 UTC til 22. klokken 18 UTC
Vind 20 kt fra Sør-sørvest

TAF: ENTC 2206/2306 20009KT 9999 SCT050 TEMPO 2206/2218 20020KT

Værobservasjoner og værvarsel for over 4000 flyplasser (METAR- og TAF-rapporter).

Tilgjengelige stasjoner er representert av de røde og gule prikkene på kartet.

Hold musepekeren over prikken for å se navnet på stasjonen.

Klikk så for å se værobservasjoner og -varsler.

For å forandre kartet kan du klikke på den grønne knappen med svart kryss for å zoome inn, på den grønne knappen med strek for å zoome ut, eller på de grønne pilene for å se tilstøtende kart.


METAR-TAF: